Terminal Aerodrome Forecast
Issued by NWS Goodland, KS

Home | Current Version | Previous Version | Text Only | Print | Product List | Glossary On
Versions: 1 2 3 4 5 6 7 8 9 10 11 12 13 14 15 16 17 18
000
FTUS43 KGLD 242331
TAFGLD
TAF
KGLD 242331Z 2500/2524 22012KT P6SM FEW250
     FM250100 21007KT P6SM SCT250
     FM250800 VRB05KT P6SM SCT250
     FM252200 34012G20KT P6SM FEW050 BKN120=

USA.gov is the U.S. government's official web portal to all federal, state and local government web resources and services.